Time;durP1;ratioP1;P1;durP2;ratioP2;P2;SDS_P1;SDS_P2;PMS_P1;PMS_P2;Temp;Humidity;BMP_temperature;BMP_pressure;BME280_temperature;BME280_humidity;BME280_pressure;Samples;Min_cycle;Max_cycle;Signal;HPM_P1;HPM_P2
2022/01/07 00:01:02;;;;;;;19.88;5.95;;;3.40;99.90;;;;;;5080190;28;20040;-80
2022/01/07 00:03:28;;;;;;;;;;;3.40;99.90;;;;;;5116628;28;20387;-81
2022/01/07 00:05:54;;;;;;;24.95;5.68;;;3.40;99.90;;;;;;5097412;28;20010;-81
2022/01/07 00:08:20;;;;;;;27.52;7.35;;;3.40;99.90;;;;;;5097440;28;20113;-82
2022/01/07 00:10:46;;;;;;;18.70;5.50;;;3.40;99.90;;;;;;5097659;28;20044;-82
2022/01/07 00:13:13;;;;;;;31.42;6.32;;;3.40;99.90;;;;;;5096637;28;20040;-80
2022/01/07 00:15:40;;;;;;;23.88;5.53;;;3.40;99.90;;;;;;5115430;28;20569;-82
2022/01/07 00:18:07;;;;;;;17.83;5.75;;;3.50;99.90;;;;;;5098081;28;20393;-81
2022/01/07 00:20:33;;;;;;;20.98;5.93;;;3.40;99.90;;;;;;5132935;27;20148;-81
2022/01/07 00:23:00;;;;;;;21.45;5.63;;;3.40;99.90;;;;;;5117446;28;20400;-82
2022/01/07 00:25:26;;;;;;;;;;;3.50;99.90;;;;;;5117412;28;20460;-82
2022/01/07 00:27:52;;;;;;;18.60;5.35;;;3.50;99.90;;;;;;5134553;27;19919;-80
2022/01/07 00:30:20;;;;;;;22.77;5.72;;;3.50;99.90;;;;;;5099555;28;20487;-80
2022/01/07 00:32:46;;;;;;;17.88;5.10;;;3.40;99.90;;;;;;5098777;28;20048;-80
2022/01/07 00:35:15;;;;;;;15.73;5.00;;;3.40;99.90;;;;;;5117489;28;20044;-82
2022/01/07 00:37:41;;;;;;;18.83;5.53;;;3.40;99.90;;;;;;5117859;28;20047;-81
2022/01/07 00:40:10;;;;;;;22.05;5.60;;;3.40;99.90;;;;;;5101198;28;20047;-82
2022/01/07 00:42:36;;;;;;;13.57;4.55;;;3.40;99.90;;;;;;5117936;28;20043;-81
2022/01/07 00:45:03;;;;;;;20.77;5.45;;;3.40;99.90;;;;;;5116445;28;20047;-80
2022/01/07 00:47:29;;;;;;;;;;;3.40;99.90;;;;;;5081452;28;20148;-81
2022/01/07 00:49:55;;;;;;;21.90;4.57;;;3.30;99.90;;;;;;5131735;27;20348;-81
2022/01/07 00:52:20;;;;;;;16.85;5.03;;;3.30;99.90;;;;;;5079953;28;20047;-80
2022/01/07 00:54:46;;;;;;;16.98;4.93;;;3.30;99.90;;;;;;5131001;27;20055;-80
2022/01/07 00:57:12;;;;;;;21.50;4.88;;;3.20;99.90;;;;;;5078669;28;20494;-81
2022/01/07 00:59:39;;;;;;;20.48;5.05;;;3.20;99.90;;;;;;5096378;28;20043;-80
2022/01/07 01:02:05;;;;;;;17.33;4.50;;;3.10;99.90;;;;;;5095937;28;20172;-79
2022/01/07 01:04:31;;;;;;;21.42;6.07;;;3.10;99.90;;;;;;5114606;28;20096;-80
2022/01/07 01:06:57;;;;;;;21.65;5.38;;;3.10;99.90;;;;;;5062834;28;20062;-80
2022/01/07 01:09:23;;;;;;;24.10;6.03;;;3.00;99.90;;;;;;5078648;28;20039;-79
2022/01/07 01:11:49;;;;;;;21.20;6.63;;;2.90;99.90;;;;;;5113837;28;20470;-79
2022/01/07 01:14:15;;;;;;;18.17;5.88;;;2.80;99.90;;;;;;5113743;28;20052;-79
2022/01/07 01:16:40;;;;;;;20.75;4.90;;;2.90;99.90;;;;;;5114163;28;20063;-80
2022/01/07 01:19:06;;;;;;;21.20;4.82;;;2.80;99.90;;;;;;5113250;28;20123;-79
2022/01/07 01:21:34;;;;;;;16.80;5.30;;;2.80;99.90;;;;;;5112587;28;20120;-73
2022/01/07 01:24:00;;;;;;;22.75;6.32;;;2.80;99.90;;;;;;5095845;28;20048;-72
2022/01/07 01:26:25;;;;;;;16.58;5.00;;;2.70;99.90;;;;;;5095433;28;20087;-72
2022/01/07 01:28:51;;;;;;;15.65;5.43;;;2.70;99.90;;;;;;5078322;28;20494;-72
2022/01/07 01:31:18;;;;;;;26.23;6.20;;;2.70;99.90;;;;;;5095405;28;20101;-72
2022/01/07 01:33:45;;;;;;;18.50;6.27;;;2.70;99.90;;;;;;5113593;28;20065;-72
2022/01/07 01:36:12;;;;;;;19.98;5.57;;;2.70;99.90;;;;;;5095392;28;20399;-72
2022/01/07 01:38:39;;;;;;;27.25;6.22;;;2.70;99.90;;;;;;5095250;28;20086;-72
2022/01/07 01:41:06;;;;;;;20.55;5.72;;;2.70;99.90;;;;;;5113405;28;20051;-72
2022/01/07 01:43:32;;;;;;;22.30;7.00;;;2.70;99.90;;;;;;5113591;28;20062;-72
2022/01/07 01:45:58;;;;;;;23.30;6.60;;;2.60;99.90;;;;;;5113272;28;20159;-72
2022/01/07 01:48:24;;;;;;;18.05;6.13;;;2.60;99.90;;;;;;5094723;28;20566;-72
2022/01/07 01:50:51;;;;;;;20.30;6.43;;;2.60;99.90;;;;;;5094587;28;20118;-72
2022/01/07 01:53:17;;;;;;;24.83;6.80;;;2.60;99.90;;;;;;5061602;28;20192;-72
2022/01/07 01:55:44;;;;;;;27.10;7.50;;;2.60;99.90;;;;;;5094814;28;20051;-71
2022/01/07 01:58:11;;;;;;;31.20;8.75;;;2.50;99.90;;;;;;5113101;28;20048;-72
2022/01/07 02:00:37;;;;;;;19.73;7.47;;;2.50;99.90;;;;;;5094730;28;20119;-72
2022/01/07 02:03:06;;;;;;;25.35;7.97;;;2.50;99.90;;;;;;5093571;28;20100;-72
2022/01/07 02:05:32;;;;;;;27.08;8.20;;;2.50;99.90;;;;;;5112910;28;20118;-72
2022/01/07 02:08:01;;;;;;;21.95;6.63;;;2.50;99.90;;;;;;5078094;28;20456;-72
2022/01/07 02:10:28;;;;;;;28.17;7.50;;;2.50;99.90;;;;;;5112753;28;20039;-71
2022/01/07 02:12:53;;;;;;;30.33;8.55;;;2.50;99.90;;;;;;5113332;28;20413;-72
2022/01/07 02:15:21;;;;;;;25.73;7.75;;;2.50;99.90;;;;;;5113361;28;20059;-71
2022/01/07 02:17:49;;;;;;;28.00;8.38;;;2.50;99.90;;;;;;5094458;28;20048;-72
2022/01/07 02:20:18;;;;;;;26.10;8.05;;;2.60;99.90;;;;;;5112474;28;20437;-72
2022/01/07 02:22:44;;;;;;;22.85;8.27;;;2.60;99.90;;;;;;5094661;28;20058;-72
2022/01/07 02:25:11;;;;;;;30.80;10.85;;;2.50;99.90;;;;;;5128649;28;20122;-72
2022/01/07 02:27:40;;;;;;;26.85;9.20;;;2.70;99.90;;;;;;5094933;28;20476;-72
2022/01/07 02:30:09;;;;;;;32.95;9.70;;;2.50;99.90;;;;;;5112747;28;20357;-72
2022/01/07 02:32:35;;;;;;;20.65;8.02;;;2.50;99.90;;;;;;5112641;28;20161;-72
2022/01/07 02:35:01;;;;;;;22.80;9.93;;;2.50;99.90;;;;;;5077762;28;20509;-72
2022/01/07 02:37:27;;;;;;;25.50;9.85;;;2.50;99.90;;;;;;5095123;28;20076;-72
2022/01/07 02:39:54;;;;;;;29.85;9.98;;;2.50;99.90;;;;;;5094326;28;20055;-71
2022/01/07 02:42:20;;;;;;;36.83;11.45;;;2.50;99.90;;;;;;5128950;28;20127;-72
2022/01/07 02:44:46;;;;;;;21.90;8.30;;;2.50;99.90;;;;;;5112361;28;20075;-72
2022/01/07 02:47:12;;;;;;;33.30;11.07;;;2.50;99.90;;;;;;5112223;28;20031;-72
2022/01/07 02:49:37;;;;;;;17.83;5.85;;;2.40;99.90;;;;;;5094792;28;20043;-72
2022/01/07 02:52:04;;;;;;;26.65;10.52;;;2.50;99.90;;;;;;5112803;28;20043;-72
2022/01/07 02:54:29;;;;;;;20.17;8.38;;;2.50;99.90;;;;;;5094350;28;20464;-71
2022/01/07 02:56:55;;;;;;;26.23;10.02;;;2.50;99.90;;;;;;5112199;28;20052;-70
2022/01/07 02:59:21;;;;;;;29.75;12.20;;;2.50;99.90;;;;;;5128187;28;20135;-70
2022/01/07 03:01:47;;;;;;;25.48;10.18;;;2.50;99.90;;;;;;5094436;28;20043;-71
2022/01/07 03:04:12;;;;;;;25.80;10.57;;;2.50;99.90;;;;;;5112401;28;20047;-71
2022/01/07 03:06:38;;;;;;;25.17;9.18;;;2.50;99.90;;;;;;5093953;28;20055;-71
2022/01/07 03:09:05;;;;;;;24.92;9.18;;;2.40;99.90;;;;;;5128345;28;20103;-71
2022/01/07 03:11:31;;;;;;;28.00;10.30;;;2.50;99.90;;;;;;5112090;28;20079;-71
2022/01/07 03:13:57;;;;;;;27.63;8.73;;;2.50;99.90;;;;;;5112053;28;20470;-71
2022/01/07 03:16:23;;;;;;;30.63;9.73;;;2.50;99.90;;;;;;5116157;28;20083;-71
2022/01/07 03:18:49;;;;;;;23.88;9.13;;;2.50;99.90;;;;;;5115871;28;20480;-70
2022/01/07 03:21:14;;;;;;;26.42;7.82;;;2.50;99.90;;;;;;5097649;28;20097;-71
2022/01/07 03:23:41;;;;;;;21.08;7.80;;;2.50;99.90;;;;;;5080363;28;20052;-70
2022/01/07 03:26:08;;;;;;;27.38;8.98;;;2.50;99.90;;;;;;5097796;28;20090;-70
2022/01/07 03:28:34;;;;;;;22.27;8.43;;;2.50;99.90;;;;;;5097761;28;20541;-70
2022/01/07 03:31:00;;;;;;;27.17;10.18;;;2.50;99.90;;;;;;5097427;28;20185;-70
2022/01/07 03:33:26;;;;;;;24.52;9.32;;;2.60;99.90;;;;;;5098032;28;20126;-70
2022/01/07 03:35:53;;;;;;;31.08;12.13;;;2.60;99.90;;;;;;5080769;28;20460;-71
2022/01/07 03:38:20;;;;;;;27.63;10.00;;;2.70;99.90;;;;;;5097182;28;20487;-70
2022/01/07 03:40:47;;;;;;;31.95;13.80;;;2.60;99.90;;;;;;5115695;28;20043;-70
2022/01/07 03:43:13;;;;;;;31.13;10.88;;;2.60;99.90;;;;;;5115353;28;20046;-71
2022/01/07 03:45:39;;;;;;;26.73;8.85;;;2.60;99.90;;;;;;5097530;28;20052;-70
2022/01/07 03:48:05;;;;;;;20.35;7.95;;;2.60;99.90;;;;;;5131752;27;20039;-70
2022/01/07 03:50:32;;;;;;;31.02;12.07;;;2.60;99.90;;;;;;5097015;28;20472;-71
2022/01/07 03:52:59;;;;;;;23.40;9.15;;;2.60;99.90;;;;;;5115126;28;20138;-70
2022/01/07 03:55:27;;;;;;;28.00;11.23;;;2.60;99.90;;;;;;5079736;28;20048;-71
2022/01/07 03:57:53;;;;;;;28.10;11.55;;;2.60;99.90;;;;;;5080342;28;20294;-70
2022/01/07 04:00:32;;;;;;;26.33;9.40;;;2.60;99.90;;;;;;5114863;28;20466;-70
2022/01/07 04:02:58;;;;;;;23.75;10.23;;;2.60;99.90;;;;;;5115762;28;20043;-70
2022/01/07 04:05:24;;;;;;;21.45;8.93;;;2.60;99.90;;;;;;5097667;28;20043;-70
2022/01/07 04:07:51;;;;;;;25.25;8.90;;;2.60;99.90;;;;;;5096637;28;20548;-69
2022/01/07 04:10:17;;;;;;;28.20;10.25;;;2.60;99.90;;;;;;5113925;28;20039;-70
2022/01/07 04:12:43;;;;;;;23.30;8.52;;;2.60;99.90;;;;;;5114988;28;20059;-70
2022/01/07 04:15:09;;;;;;;27.08;9.30;;;2.60;99.90;;;;;;5114797;28;20537;-70
2022/01/07 04:17:40;;;;;;;22.77;7.50;;;2.70;99.90;;;;;;5097377;28;20055;-70
2022/01/07 04:20:08;;;;;;;24.17;10.02;;;2.70;99.90;;;;;;5131282;27;20094;-70
2022/01/07 04:22:34;;;;;;;30.20;9.68;;;2.70;99.90;;;;;;5096375;28;20051;-70
2022/01/07 04:25:02;;;;;;;27.98;9.20;;;2.70;99.90;;;;;;5114871;28;20047;-70
2022/01/07 04:27:28;;;;;;;24.52;8.98;;;2.70;99.90;;;;;;5113528;28;20048;-70
2022/01/07 04:29:54;;;;;;;25.02;8.93;;;2.60;99.90;;;;;;5114684;28;20051;-71
2022/01/07 04:32:20;;;;;;;23.52;8.02;;;2.70;99.90;;;;;;5096494;28;20054;-70
2022/01/07 04:34:46;;;;;;;21.65;8.25;;;2.70;99.90;;;;;;5114392;28;20152;-70
2022/01/07 04:37:12;;;;;;;19.48;6.75;;;2.60;99.90;;;;;;5096115;28;20116;-70
2022/01/07 04:39:37;;;;;;;21.38;8.20;;;2.70;99.90;;;;;;5095935;28;20066;-70
2022/01/07 04:42:04;;;;;;;26.00;8.63;;;2.60;99.90;;;;;;5079271;28;20443;-70
2022/01/07 04:44:29;;;;;;;18.80;8.23;;;2.60;99.90;;;;;;5115129;28;20135;-71
2022/01/07 04:46:55;;;;;;;23.67;9.38;;;2.70;99.90;;;;;;5114167;28;20192;-71
2022/01/07 04:49:21;;;;;;;21.90;8.27;;;2.70;99.90;;;;;;5096046;28;20039;-69
2022/01/07 04:51:47;;;;;;;19.40;7.68;;;2.70;99.90;;;;;;5114078;28;20035;-70
2022/01/07 04:54:13;;;;;;;23.23;8.13;;;2.70;99.90;;;;;;5114047;28;20369;-70
2022/01/07 04:56:39;;;;;;;24.83;9.95;;;2.70;99.90;;;;;;5095931;28;20051;-71
2022/01/07 04:59:04;;;;;;;20.42;10.27;;;2.70;99.90;;;;;;5114458;28;20043;-70
2022/01/07 05:01:30;;;;;;;22.88;8.93;;;2.70;99.90;;;;;;5113946;28;20043;-71
2022/01/07 05:03:56;;;;;;;19.63;7.72;;;2.70;99.90;;;;;;5095868;28;20050;-70
2022/01/07 05:06:44;;;;;;;16.40;7.13;;;2.70;99.90;;;;;;5114549;28;20085;-70
2022/01/07 05:09:07;;;;;;;17.77;7.43;;;2.70;99.90;;;;;;5094784;28;20117;-70
2022/01/07 05:11:33;;;;;;;21.27;7.93;;;2.70;99.90;;;;;;5114049;28;20493;-71
2022/01/07 05:13:59;;;;;;;15.68;6.97;;;2.60;99.90;;;;;;5113691;28;20054;-70
2022/01/07 05:16:26;;;;;;;17.13;7.50;;;2.60;99.90;;;;;;5062648;28;20066;-70
2022/01/07 05:18:52;;;;;;;18.83;9.38;;;2.60;99.90;;;;;;5129193;27;20460;-70
2022/01/07 05:21:18;;;;;;;20.70;8.25;;;2.70;99.90;;;;;;5113756;28;20096;-71
2022/01/07 05:23:43;;;;;;;16.17;8.20;;;2.70;99.90;;;;;;5112992;28;20047;-70
2022/01/07 05:26:09;;;;;;;19.17;7.00;;;2.70;99.90;;;;;;5095170;28;20096;-70
2022/01/07 05:28:35;;;;;;;20.10;8.68;;;2.70;99.90;;;;;;5078943;28;20486;-70
2022/01/07 05:31:03;;;;;;;21.08;8.43;;;2.60;99.90;;;;;;5095592;28;20048;-70
2022/01/07 05:33:28;;;;;;;18.30;7.85;;;2.70;99.90;;;;;;5113442;28;20138;-71
2022/01/07 05:35:54;;;;;;;17.45;7.80;;;2.70;99.90;;;;;;5095054;28;20171;-70
2022/01/07 05:38:20;;;;;;;20.77;7.70;;;2.70;99.90;;;;;;5113426;28;20054;-71
2022/01/07 05:40:46;;;;;;;18.77;7.57;;;2.70;99.90;;;;;;5112782;28;20044;-71
2022/01/07 05:43:11;;;;;;;16.50;6.75;;;2.70;99.90;;;;;;5095048;28;20054;-70
2022/01/07 05:45:37;;;;;;;15.63;6.38;;;2.80;99.90;;;;;;5113467;28;20409;-69
2022/01/07 05:48:03;;;;;;;21.08;8.15;;;2.70;99.90;;;;;;5113379;28;20048;-71
2022/01/07 05:50:29;;;;;;;17.40;6.85;;;2.80;99.90;;;;;;5094931;28;20399;-70
2022/01/07 05:52:55;;;;;;;16.00;6.80;;;2.80;99.90;;;;;;5112647;28;20039;-72
2022/01/07 05:55:21;;;;;;;12.73;6.35;;;2.80;99.90;;;;;;5112990;28;20047;-71
2022/01/07 05:57:46;;;;;;;19.88;6.07;;;2.80;99.90;;;;;;5094952;28;20488;-71
2022/01/07 06:00:12;;;;;;;15.48;6.80;;;2.80;99.90;;;;;;5113165;28;20043;-71
2022/01/07 06:02:39;;;;;;;18.65;7.20;;;2.90;99.90;;;;;;5113275;28;20144;-71
2022/01/07 06:05:06;;;;;;;17.15;6.97;;;2.90;99.90;;;;;;5094594;28;20049;-69
2022/01/07 06:07:32;;;;;;;21.77;8.23;;;2.90;99.90;;;;;;5094537;28;20081;-70
2022/01/07 06:09:57;;;;;;;15.40;8.25;;;3.00;99.90;;;;;;5094217;28;20048;-69
2022/01/07 06:12:23;;;;;;;14.50;6.40;;;2.90;99.90;;;;;;5094502;28;20066;-69
2022/01/07 06:14:49;;;;;;;15.27;7.63;;;2.90;99.90;;;;;;5094360;28;20135;-70
2022/01/07 06:17:14;;;;;;;17.88;6.85;;;3.00;99.90;;;;;;5112529;28;20081;-71
2022/01/07 06:19:40;;;;;;;21.00;8.15;;;3.10;99.90;;;;;;5094462;28;20040;-72
2022/01/07 06:22:06;;;;;;;15.07;6.50;;;3.00;99.90;;;;;;5094359;28;20047;-70
2022/01/07 06:24:32;;;;;;;14.20;5.38;;;3.00;99.90;;;;;;5077769;28;20471;-70
2022/01/07 06:26:58;;;;;;;16.92;7.18;;;3.00;99.90;;;;;;5112682;28;20085;-70
2022/01/07 06:29:24;;;;;;;17.77;6.63;;;3.00;99.90;;;;;;5094573;28;20044;-70
2022/01/07 06:31:50;;;;;;;15.88;7.28;;;3.00;99.90;;;;;;5112967;28;20666;-70
2022/01/07 06:34:20;;;;;;;16.13;6.97;;;3.00;99.90;;;;;;5094613;28;20171;-70
2022/01/07 06:36:46;;;;;;;14.90;5.95;;;3.00;99.90;;;;;;5112406;28;20092;-70
2022/01/07 06:39:12;;;;;;;15.60;7.22;;;3.10;99.90;;;;;;5112517;28;20148;-70
2022/01/07 06:41:38;;;;;;;14.95;7.20;;;3.10;99.90;;;;;;5112692;28;20058;-70
2022/01/07 06:44:04;;;;;;;11.52;4.50;;;3.10;99.90;;;;;;5094657;28;20047;-71
2022/01/07 06:46:30;;;;;;;14.55;6.57;;;3.20;99.90;;;;;;5112499;28;20043;-70
2022/01/07 06:48:56;;;;;;;17.08;7.10;;;3.10;99.90;;;;;;5112808;28;20420;-71
2022/01/07 06:51:21;;;;;;;16.30;8.40;;;3.10;99.90;;;;;;5098191;28;20118;-70
2022/01/07 06:53:47;;;;;;;15.27;7.10;;;3.00;99.90;;;;;;5116258;28;20082;-70
2022/01/07 06:56:13;;;;;;;16.83;7.00;;;3.10;99.90;;;;;;5098162;28;20075;-70
2022/01/07 06:58:39;;;;;;;13.57;6.47;;;3.10;99.90;;;;;;5098112;28;20054;-71
2022/01/07 07:01:07;;;;;;;17.33;8.30;;;3.10;99.90;;;;;;5098364;28;20131;-70
2022/01/07 07:03:35;;;;;;;18.88;7.65;;;3.20;99.90;;;;;;5115927;28;20092;-70
2022/01/07 07:06:00;;;;;;;;;;;3.10;99.90;;;;;;5116318;28;20126;-70
2022/01/07 07:08:28;;;;;;;17.42;7.65;;;3.10;99.90;;;;;;5116570;28;19954;-71
2022/01/07 07:10:54;;;;;;;12.00;6.10;;;3.10;99.90;;;;;;5065169;28;20048;-70
2022/01/07 07:13:20;;;;;;;23.13;11.13;;;3.10;99.90;;;;;;5115497;28;20047;-70
2022/01/07 07:15:46;;;;;;;21.13;9.05;;;3.20;99.90;;;;;;5115782;28;20052;-70
2022/01/07 07:18:13;;;;;;;21.20;8.88;;;3.10;99.90;;;;;;5097844;28;20054;-70
2022/01/07 07:20:39;;;;;;;20.38;9.52;;;3.20;99.90;;;;;;5115597;28;20043;-72
2022/01/07 07:23:04;;;;;;;23.13;9.52;;;3.20;99.90;;;;;;5080497;28;20047;-70
2022/01/07 07:25:30;;;;;;;30.88;8.52;;;3.20;99.90;;;;;;5097922;28;20113;-70
2022/01/07 07:27:56;;;;;;;22.23;9.73;;;3.20;99.90;;;;;;5115658;28;20131;-70
2022/01/07 07:30:22;;;;;;;20.15;9.52;;;3.30;99.90;;;;;;5115539;28;20426;-70
2022/01/07 07:32:50;;;;;;;23.20;13.13;;;3.30;99.90;;;;;;5097392;28;20096;-71
2022/01/07 07:37:42;;;;;;;23.30;10.98;;;3.30;99.90;;;;;;5115766;28;20044;-70
2022/01/07 07:40:08;;;;;;;25.50;11.73;;;3.40;99.90;;;;;;5115333;28;20036;-71
2022/01/07 07:42:33;;;;;;;23.08;10.05;;;3.40;99.90;;;;;;5115564;28;20044;-71
2022/01/07 07:44:59;;;;;;;23.40;10.98;;;3.40;99.90;;;;;;5116008;28;20123;-71
2022/01/07 07:47:25;;;;;;;28.85;11.10;;;3.40;99.90;;;;;;5115318;28;20039;-72
2022/01/07 07:49:51;;;;;;;26.08;12.07;;;3.40;99.90;;;;;;5131319;27;20116;-71
2022/01/07 07:52:16;;;;;;;27.25;13.20;;;3.50;99.90;;;;;;5097592;28;20043;-70
2022/01/07 07:54:42;;;;;;;26.50;11.10;;;3.50;99.90;;;;;;5096881;28;20061;-70
2022/01/07 07:57:08;;;;;;;30.33;12.23;;;3.50;99.90;;;;;;5114905;28;20055;-70
2022/01/07 07:59:33;;;;;;;27.67;11.20;;;3.50;99.90;;;;;;5096940;28;20035;-70
2022/01/07 08:02:01;;;;;;;29.65;12.43;;;3.50;99.90;;;;;;5095761;28;20048;-70
2022/01/07 08:04:27;;;;;;;34.70;13.18;;;3.60;99.90;;;;;;5115512;28;20059;-70
2022/01/07 08:06:53;;;;;;;33.33;12.90;;;3.60;99.90;;;;;;5096728;28;20048;-71
2022/01/07 08:09:19;;;;;;;33.13;13.25;;;3.70;99.90;;;;;;5113972;28;20112;-70
2022/01/07 08:11:50;;;;;;;25.60;11.32;;;3.70;99.90;;;;;;5114863;28;20047;-70
2022/01/07 08:17:02;;;;;;;33.42;14.00;;;3.80;99.90;;;;;;5115027;28;20040;-71
2022/01/07 08:19:27;;;;;;;30.55;14.13;;;3.90;99.90;;;;;;5096499;28;20131;-70
2022/01/07 08:21:53;;;;;;;31.95;12.93;;;3.90;99.90;;;;;;5096531;28;20093;-71
2022/01/07 08:24:19;;;;;;;31.95;14.95;;;3.90;99.90;;;;;;5130352;27;20103;-70
2022/01/07 08:26:45;;;;;;;33.25;14.98;;;4.00;99.90;;;;;;5096539;28;20087;-71
2022/01/07 08:29:12;;;;;;;32.85;13.35;;;4.00;99.90;;;;;;5096723;28;20126;-71
2022/01/07 08:36:52;;;;;;;36.78;14.15;;;4.00;99.90;;;;;;5114531;28;20040;-70
2022/01/07 08:39:18;;;;;;;35.17;14.23;;;4.00;99.90;;;;;;5113957;28;20483;-69
2022/01/07 08:41:44;;;;;;;30.70;12.50;;;4.10;99.90;;;;;;5096557;28;20076;-70
2022/01/07 08:44:11;;;;;;;34.75;13.82;;;4.20;99.90;;;;;;5114205;28;20131;-70
2022/01/07 08:46:37;;;;;;;34.08;14.05;;;4.20;99.90;;;;;;5114595;28;20049;-70
2022/01/07 08:49:05;;;;;;;43.38;15.70;;;4.30;99.90;;;;;;5062612;28;20052;-70
2022/01/07 08:51:32;;;;;;;35.05;12.85;;;4.30;99.90;;;;;;5114020;28;20080;-70
2022/01/07 08:53:58;;;;;;;41.73;16.07;;;4.30;99.90;;;;;;5114826;28;20036;-70
2022/01/07 08:56:25;;;;;;;33.50;14.48;;;4.30;99.90;;;;;;5114267;28;20384;-70
2022/01/07 08:58:57;;;;;;;38.88;16.38;;;4.30;99.90;;;;;;5114556;28;20044;-70
2022/01/07 09:01:28;;;;;;;41.08;16.42;;;4.30;99.90;;;;;;5114443;28;20043;-70
2022/01/07 09:03:54;;;;;;;31.77;13.05;;;4.30;99.90;;;;;;5130002;27;20051;-70
2022/01/07 09:06:20;;;;;;;39.78;15.45;;;4.30;99.90;;;;;;5079280;28;20134;-70
2022/01/07 09:08:46;;;;;;;38.60;16.00;;;4.40;99.90;;;;;;5114547;28;20082;-71
2022/01/07 09:11:12;;;;;;;38.95;16.25;;;4.40;99.90;;;;;;5114228;28;20079;-71
2022/01/07 09:13:38;;;;;;;47.67;16.53;;;4.50;99.90;;;;;;5113702;28;20394;-71
2022/01/07 09:16:04;;;;;;;40.72;15.48;;;4.60;99.90;;;;;;5095150;28;20101;-71
2022/01/07 09:18:31;;;;;;;42.50;15.88;;;4.60;99.90;;;;;;5114398;28;20056;-71
2022/01/07 09:20:58;;;;;;;46.63;16.80;;;4.60;99.90;;;;;;5095325;28;20047;-71
2022/01/07 09:23:24;;;;;;;41.00;16.77;;;4.60;99.90;;;;;;5078627;28;20083;-71
2022/01/07 09:25:49;;;;;;;43.88;15.45;;;4.70;99.90;;;;;;5114122;28;20043;-71
2022/01/07 09:28:15;;;;;;;36.28;14.30;;;4.80;99.90;;;;;;5077960;28;20048;-71
2022/01/07 09:30:41;;;;;;;43.72;16.88;;;4.90;99.90;;;;;;5061643;28;20340;-70
2022/01/07 09:33:07;;;;;;;50.45;18.25;;;4.90;99.90;;;;;;5129606;27;20074;-72
2022/01/07 09:35:32;;;;;;;35.13;16.75;;;5.00;99.90;;;;;;5094890;28;20054;-72
2022/01/07 09:37:58;;;;;;;38.80;16.60;;;5.00;99.90;;;;;;5113205;28;20043;-70
2022/01/07 09:40:25;;;;;;;38.20;15.77;;;5.10;99.90;;;;;;5094502;28;20494;-71
2022/01/07 09:43:06;;;;;;;44.25;15.95;;;5.10;99.90;;;;;;5112110;28;20079;-69
2022/01/07 09:45:33;;;;;;;39.88;15.13;;;5.10;99.90;;;;;;5113374;28;20154;-71
2022/01/07 09:48:01;;;;;;;35.53;17.33;;;5.10;99.90;;;;;;5129742;27;20051;-71
2022/01/07 09:50:28;;;;;;;35.78;14.27;;;5.00;99.90;;;;;;5095825;28;20051;-71
2022/01/07 09:52:54;;;;;;;35.42;14.75;;;5.00;99.90;;;;;;5095178;28;20128;-70
2022/01/07 09:55:20;;;;;;;37.38;17.40;;;4.90;99.90;;;;;;5095157;28;20043;-70
2022/01/07 09:57:46;;;;;;;39.47;15.90;;;4.90;99.90;;;;;;5094839;28;20483;-70
2022/01/07 10:00:13;;;;;;;40.55;16.55;;;4.90;99.90;;;;;;5077497;28;20047;-71
2022/01/07 10:03:17;;;;;;;38.87;14.87;;;4.90;99.90;;;;;;5112350;28;20119;-71
2022/01/07 10:05:46;;;;;;;37.03;16.67;;;4.90;99.90;;;;;;5050240;28;20041;-71
2022/01/07 10:08:20;;;;;;;39.55;16.27;;;4.90;99.90;;;;;;5033903;28;20052;-72
2022/01/07 10:10:46;;;;;;;41.22;16.88;;;4.90;99.90;;;;;;5066466;28;20181;-71
2022/01/07 10:13:17;;;;;;;42.22;17.67;;;4.90;99.90;;;;;;5113172;28;20125;-71
2022/01/07 10:15:43;;;;;;;37.05;13.30;;;4.80;99.90;;;;;;5128457;28;20411;-71
2022/01/07 10:18:11;;;;;;;27.58;12.05;;;4.70;99.90;;;;;;5113465;28;20055;-71
2022/01/07 10:20:40;;;;;;;25.25;9.50;;;4.90;99.90;;;;;;5112711;28;20404;-70
2022/01/07 10:23:10;;;;;;;24.75;10.88;;;4.80;99.90;;;;;;5094694;28;20050;-69
2022/01/07 10:25:43;;;;;;;25.42;10.95;;;4.80;99.90;;;;;;5131729;27;20106;-72
2022/01/07 10:28:15;;;;;;;23.98;9.43;;;4.80;99.90;;;;;;5117158;28;20055;-70
2022/01/07 10:30:42;;;;;;;20.98;8.27;;;4.80;99.90;;;;;;5099249;28;20073;-69
2022/01/07 10:33:35;;;;;;;27.17;10.18;;;4.70;99.90;;;;;;5132874;27;20051;-72
2022/01/07 10:36:07;;;;;;;17.92;7.07;;;4.60;99.90;;;;;;5099512;28;20070;-71
2022/01/07 10:38:34;;;;;;;16.80;7.53;;;4.70;99.90;;;;;;5116700;28;20050;-72
2022/01/07 10:41:00;;;;;;;22.40;7.28;;;4.60;99.90;;;;;;5081805;28;20391;-70
2022/01/07 10:43:32;;;;;;;19.83;7.85;;;4.60;99.90;;;;;;5116735;28;20062;-70
2022/01/07 10:46:13;;;;;;;15.07;6.50;;;4.60;99.90;;;;;;5098290;28;20043;-71
2022/01/07 10:48:40;;;;;;;15.88;7.05;;;4.60;99.90;;;;;;5132439;27;20047;-70
2022/01/07 10:51:08;;;;;;;15.70;6.55;;;4.60;99.90;;;;;;5116903;28;20122;-71
2022/01/07 10:53:35;;;;;;;18.75;6.38;;;4.70;99.90;;;;;;5116275;28;20531;-71
2022/01/07 10:56:20;;;;;;;15.43;6.80;;;4.70;99.90;;;;;;5099108;28;20418;-71
2022/01/07 10:58:46;;;;;;;20.30;7.32;;;4.70;99.90;;;;;;5097977;28;20130;-72
2022/01/07 11:01:20;;;;;;;21.20;7.88;;;4.80;99.90;;;;;;5116232;28;20079;-71
2022/01/07 11:03:57;;;;;;;21.75;8.38;;;4.80;99.90;;;;;;5098101;28;20397;-72
2022/01/07 11:06:24;;;;;;;;;;;4.80;99.90;;;;;;5133049;27;20051;-72
2022/01/07 11:08:51;;;;;;;29.25;9.82;;;4.90;99.90;;;;;;5115754;28;19919;-71
2022/01/07 11:11:19;;;;;;;28.35;10.43;;;4.90;99.90;;;;;;5097843;28;20100;-71
2022/01/07 11:13:45;;;;;;;30.05;13.00;;;5.00;99.90;;;;;;5098585;28;20481;-70
2022/01/07 11:16:11;;;;;;;35.72;14.73;;;5.00;99.90;;;;;;5116184;28;20147;-70
2022/01/07 11:18:41;;;;;;;40.15;16.38;;;4.90;99.90;;;;;;5098541;28;20051;-70
2022/01/07 11:21:09;;;;;;;31.92;13.27;;;4.90;99.90;;;;;;5131796;27;20040;-70
2022/01/07 11:23:41;;;;;;;35.28;13.52;;;5.00;99.90;;;;;;5114836;27;20076;-70
2022/01/07 11:26:09;;;;;;;33.42;13.88;;;5.10;99.90;;;;;;5064809;28;20047;-70
2022/01/07 11:28:35;;;;;;;25.33;10.25;;;5.10;99.90;;;;;;5081339;28;20536;-70
2022/01/07 11:31:14;;;;;;;26.95;10.15;;;5.20;99.90;;;;;;5097994;28;20081;-70
2022/01/07 11:33:41;;;;;;;26.35;10.32;;;5.20;99.90;;;;;;5116179;28;20455;-70
2022/01/07 11:36:12;;;;;;;14.23;5.17;;;5.20;99.90;;;;;;5080628;28;20067;-71
2022/01/07 11:38:46;;;;;;;9.55;3.15;;;5.20;99.90;;;;;;5115288;28;20765;-71
2022/01/07 11:41:53;;;;;;;10.98;2.45;;;5.00;99.90;;;;;;5097760;28;20067;-71
2022/01/07 11:44:26;;;;;;;7.15;1.30;;;4.90;99.90;;;;;;5115259;28;20071;-71
2022/01/07 11:47:12;;;;;;;6.03;0.50;;;4.80;99.90;;;;;;5131579;27;20044;-70
2022/01/07 11:49:39;;;;;;;2.53;0.43;;;4.70;99.90;;;;;;5096818;28;20183;-71
2022/01/07 11:52:31;;;;;;;9.50;0.95;;;4.60;99.90;;;;;;5115180;28;20066;-71
2022/01/07 11:55:19;;;;;;;2.95;0.70;;;4.50;99.90;;;;;;5116124;28;20051;-72
2022/01/07 11:57:54;;;;;;;5.53;0.63;;;4.50;99.90;;;;;;5115185;28;20044;-71
2022/01/07 12:00:48;;;;;;;8.35;0.60;;;4.40;99.90;;;;;;5113877;28;20104;-69
2022/01/07 12:03:29;;;;;;;4.60;0.40;;;4.30;99.90;;;;;;5114826;28;20546;-69
2022/01/07 12:05:55;;;;;;;9.93;0.57;;;4.30;99.90;;;;;;5115624;28;20443;-70
2022/01/07 12:08:40;;;;;;;5.60;0.40;;;4.30;99.90;;;;;;5079215;28;20043;-71
2022/01/07 12:11:08;;;;;;;7.53;0.75;;;4.30;99.90;;;;;;5114288;28;20130;-71
2022/01/07 12:13:39;;;;;;;1.40;0.20;;;4.30;99.90;;;;;;5115420;28;20394;-71
2022/01/07 12:16:06;;;;;;;5.63;0.40;;;4.20;99.90;;;;;;5114176;28;20048;-71
2022/01/07 12:18:33;;;;;;;;;;;4.20;99.90;;;;;;5080130;28;20058;-70
2022/01/07 12:20:58;;;;;;;7.18;0.20;;;4.20;99.90;;;;;;5096581;28;19924;-71
2022/01/07 12:23:24;;;;;;;5.40;0.17;;;4.10;99.90;;;;;;5079429;28;20058;-71
2022/01/07 12:25:52;;;;;;;2.05;0.55;;;4.30;99.90;;;;;;5131071;27;20077;-71
2022/01/07 12:28:18;;;;;;;9.27;0.47;;;4.20;99.90;;;;;;5131179;27;20044;-72
2022/01/07 12:30:46;;;;;;;6.35;0.28;;;4.10;99.90;;;;;;5113591;28;20096;-71
2022/01/07 12:33:12;;;;;;;4.82;0.35;;;4.10;99.90;;;;;;5096236;28;20130;-70
2022/01/07 12:35:39;;;;;;;4.82;0.45;;;4.10;99.90;;;;;;5114635;28;20097;-71
2022/01/07 12:38:17;;;;;;;7.18;0.65;;;4.10;99.90;;;;;;5096151;28;20048;-71
2022/01/07 12:40:51;;;;;;;2.95;0.40;;;4.10;99.90;;;;;;5114980;28;20047;-71
2022/01/07 12:43:28;;;;;;;5.85;0.40;;;4.10;99.90;;;;;;5115080;28;20105;-70
2022/01/07 12:45:59;;;;;;;10.02;0.60;;;4.10;99.90;;;;;;5096692;28;20130;-71
2022/01/07 12:48:36;;;;;;;7.80;0.70;;;4.10;99.90;;;;;;5112815;28;20048;-71
2022/01/07 12:51:04;;;;;;;6.40;1.02;;;4.10;99.90;;;;;;5130341;27;20134;-70
2022/01/07 12:53:30;;;;;;;8.23;1.10;;;4.20;99.90;;;;;;5096209;28;20130;-70
2022/01/07 12:55:56;;;;;;;11.18;2.20;;;4.20;99.90;;;;;;5095709;28;20086;-70
2022/01/07 12:58:28;;;;;;;11.48;2.20;;;4.20;99.90;;;;;;5113973;28;20044;-71